createdAt,value
2018-05-01T00:00:54.724Z,0.50
2018-05-01T00:03:28.529Z,0.70
2018-05-01T00:06:03.127Z,0.40
2018-05-01T00:08:38.498Z,0.40
2018-05-01T00:11:12.102Z,0.30
2018-05-01T00:13:45.980Z,0.50
2018-05-01T00:16:19.747Z,0.57
2018-05-01T00:18:53.603Z,0.93
2018-05-01T00:21:27.455Z,0.40
2018-05-01T00:24:01.998Z,0.57
2018-05-01T00:26:36.003Z,0.43
2018-05-01T00:29:09.807Z,0.40
2018-05-01T00:31:44.180Z,0.30
2018-05-01T00:34:17.840Z,0.50
2018-05-01T00:36:51.391Z,0.50
2018-05-01T00:39:25.235Z,0.40
2018-05-01T00:41:59.607Z,0.40
2018-05-01T00:44:33.537Z,0.40
2018-05-01T00:47:07.607Z,0.30
2018-05-01T00:49:41.482Z,0.60
2018-05-01T00:52:26.805Z,0.40
2018-05-01T00:55:00.595Z,0.52
2018-05-01T00:57:34.246Z,0.70
2018-05-01T01:00:09.172Z,0.93
2018-05-01T01:02:43.593Z,0.40
2018-05-01T01:05:18.156Z,0.30
2018-05-01T01:07:51.895Z,0.40
2018-05-01T01:10:25.604Z,0.40
2018-05-01T01:12:59.359Z,0.43
2018-05-01T01:15:33.149Z,0.43
2018-05-01T01:18:06.895Z,0.57
2018-05-01T01:20:40.619Z,0.40
2018-05-01T01:23:14.253Z,0.40
2018-05-01T01:25:47.954Z,0.40
2018-05-01T01:28:21.663Z,0.40
2018-05-01T01:30:56.055Z,0.62
2018-05-01T01:33:29.685Z,0.50
2018-05-01T01:36:03.042Z,0.40
2018-05-01T01:38:37.943Z,0.50
2018-05-01T01:41:11.241Z,0.60
2018-05-01T01:43:44.509Z,0.65
2018-05-01T01:46:17.671Z,0.50
2018-05-01T01:48:50.897Z,0.50
2018-05-01T01:51:28.059Z,0.40
2018-05-01T01:54:02.083Z,0.47
2018-05-01T01:56:35.240Z,1.00
2018-05-01T01:59:08.602Z,0.40
2018-05-01T02:01:41.860Z,0.50
2018-05-01T02:04:15.065Z,0.60
2018-05-01T02:06:48.320Z,0.50
2018-05-01T02:09:21.536Z,0.55
2018-05-01T02:11:55.893Z,0.50
2018-05-01T02:14:29.251Z,0.40
2018-05-01T02:17:02.405Z,0.70
2018-05-01T02:19:35.745Z,0.30
2018-05-01T02:22:13.487Z,0.68
2018-05-01T02:24:48.059Z,0.60
2018-05-01T02:27:22.230Z,0.40
2018-05-01T02:29:55.403Z,0.40
2018-05-01T02:32:28.770Z,0.50
2018-05-01T02:35:02.077Z,0.40
2018-05-01T02:37:35.332Z,0.40
2018-05-01T02:40:09.355Z,0.50
2018-05-01T02:42:42.457Z,0.62
2018-05-01T02:45:15.618Z,0.62
2018-05-01T02:47:48.900Z,0.40
2018-05-01T02:50:22.048Z,0.47
2018-05-01T02:52:55.155Z,0.40
2018-05-01T02:55:28.450Z,0.50
2018-05-01T02:58:01.759Z,0.50
2018-05-01T03:00:34.848Z,0.55
2018-05-01T03:03:09.045Z,0.40
2018-05-01T03:05:43.157Z,0.50
2018-05-01T03:08:17.456Z,0.40
2018-05-01T03:10:50.819Z,0.30
2018-05-01T03:13:24.536Z,0.50
2018-05-01T03:15:57.926Z,0.50
2018-05-01T03:18:31.263Z,0.43
2018-05-01T03:21:04.535Z,0.40
2018-05-01T03:23:37.676Z,0.50
2018-05-01T03:26:10.938Z,0.40
2018-05-01T03:28:44.291Z,0.52
2018-05-01T03:31:17.513Z,0.40
2018-05-01T03:33:50.758Z,0.50
2018-05-01T03:36:23.959Z,0.47
2018-05-01T03:38:57.275Z,0.40
2018-05-01T03:41:31.341Z,0.40
2018-05-01T03:44:04.676Z,0.32
2018-05-01T03:46:37.781Z,0.40
2018-05-01T03:49:11.400Z,0.40
2018-05-01T03:51:44.550Z,0.50
2018-05-01T03:54:17.800Z,0.88
2018-05-01T03:56:50.866Z,0.40
2018-05-01T03:59:24.319Z,0.45
2018-05-01T04:01:57.615Z,0.40
2018-05-01T04:04:30.999Z,0.37
2018-05-01T04:07:05.072Z,0.30
2018-05-01T04:09:38.406Z,0.40
2018-05-01T04:12:11.637Z,0.37
2018-05-01T04:14:44.791Z,0.50
2018-05-01T04:17:18.194Z,0.50
2018-05-01T04:19:51.370Z,0.40
2018-05-01T04:22:24.579Z,0.70
2018-05-01T04:24:57.772Z,0.30
2018-05-01T04:27:31.815Z,0.82
2018-05-01T04:30:05.755Z,0.60
2018-05-01T04:32:39.141Z,0.37
2018-05-01T04:35:12.448Z,0.70
2018-05-01T04:37:45.771Z,0.40
2018-05-01T04:40:19.734Z,0.40
2018-05-01T04:42:52.962Z,0.37
2018-05-01T04:45:26.122Z,0.40
2018-05-01T04:47:59.422Z,0.40
2018-05-01T04:50:34.181Z,0.62
2018-05-01T04:53:07.308Z,0.40
2018-05-01T04:55:40.986Z,0.60
2018-05-01T04:58:14.139Z,0.47
2018-05-01T05:00:47.437Z,0.40
2018-05-01T05:03:21.229Z,0.40
2018-05-01T05:05:54.423Z,0.50
2018-05-01T05:08:28.312Z,0.40
2018-05-01T05:11:01.380Z,0.68
2018-05-01T05:13:35.419Z,0.45
2018-05-01T05:16:08.715Z,0.50
2018-05-01T05:18:41.975Z,0.50
2018-05-01T05:21:15.069Z,0.40
2018-05-01T05:23:48.258Z,0.40
2018-05-01T05:26:21.624Z,0.50
2018-05-01T05:28:54.914Z,0.40
2018-05-01T05:31:29.095Z,0.50
2018-05-01T05:34:03.168Z,0.40
2018-05-01T05:36:36.507Z,0.50
2018-05-01T05:39:09.664Z,0.30
2018-05-01T05:41:43.608Z,0.50
2018-05-01T05:44:17.375Z,0.45
2018-05-01T05:46:51.478Z,0.52
2018-05-01T05:49:24.566Z,0.50
2018-05-01T05:51:58.592Z,0.40
2018-05-01T05:54:31.833Z,0.32
2018-05-01T05:57:05.744Z,0.50
2018-05-01T05:59:39.077Z,0.60
2018-05-01T06:02:12.265Z,0.40
2018-05-01T06:04:45.514Z,0.40
2018-05-01T06:07:18.736Z,0.50
2018-05-01T06:09:52.807Z,0.60
2018-05-01T06:12:26.149Z,0.50
2018-05-01T06:14:59.442Z,0.60
2018-05-01T06:17:33.554Z,0.40
2018-05-01T06:20:06.938Z,0.47
2018-05-01T06:22:41.119Z,0.50
2018-05-01T06:25:14.586Z,0.50
2018-05-01T06:27:47.914Z,0.40
2018-05-01T06:30:21.151Z,0.52
2018-05-01T06:32:54.554Z,0.60
2018-05-01T06:35:28.545Z,0.50
2018-05-01T06:38:01.897Z,0.60
2018-05-01T06:40:36.093Z,0.50
2018-05-01T06:43:10.164Z,0.70
2018-05-01T06:45:43.366Z,0.60
2018-05-01T06:48:16.658Z,0.60
2018-05-01T06:50:50.080Z,0.50
2018-05-01T06:53:24.287Z,0.62
2018-05-01T06:55:57.808Z,0.70
2018-05-01T06:58:31.110Z,0.52
2018-05-01T07:01:04.370Z,0.50
2018-05-01T07:03:39.923Z,0.60
2018-05-01T07:06:13.635Z,0.50
2018-05-01T07:08:47.736Z,1.30
2018-05-01T07:11:21.556Z,0.68
2018-05-01T07:13:54.717Z,0.60
2018-05-01T07:16:28.756Z,0.70
2018-05-01T07:19:02.868Z,0.70
2018-05-01T07:21:36.191Z,0.90
2018-05-01T07:24:09.435Z,0.60
2018-05-01T07:26:42.649Z,0.90
2018-05-01T07:29:15.715Z,0.50
2018-05-01T07:31:48.903Z,0.70
2018-05-01T07:34:29.069Z,0.60
2018-05-01T07:37:04.776Z,0.70
2018-05-01T07:39:38.066Z,0.82
2018-05-01T07:42:11.480Z,0.95
2018-05-01T07:44:44.651Z,1.05
2018-05-01T07:47:18.074Z,1.70
2018-05-01T07:49:51.362Z,1.40
2018-05-01T07:52:24.620Z,0.70
2018-05-01T07:54:57.954Z,2.67
2018-05-01T07:57:31.286Z,1.02
2018-05-01T08:00:05.130Z,1.25
2018-05-01T08:02:40.097Z,1.08
2018-05-01T08:05:13.251Z,1.10
2018-05-01T08:07:46.581Z,1.40
2018-05-01T08:10:20.491Z,1.35
2018-05-01T08:54:56.070Z,1.40
2018-05-01T08:57:37.710Z,1.05
2018-05-01T09:00:21.809Z,2.87
2018-05-01T09:02:57.634Z,1.60
2018-05-01T09:11:41.877Z,3.35
2018-05-01T09:14:20.000Z,3.03
2018-05-01T09:20:13.199Z,2.83
2018-05-01T09:22:49.254Z,2.80
2018-05-01T09:25:24.277Z,1.55
2018-05-01T09:27:59.025Z,1.15
2018-05-01T09:30:32.408Z,3.10
2018-05-01T09:33:05.787Z,3.17
2018-05-01T09:35:39.255Z,1.10
2018-05-01T09:38:12.681Z,2.83
2018-05-01T09:40:46.709Z,2.30
2018-05-01T09:43:19.985Z,0.90
2018-05-01T09:45:53.220Z,1.95
2018-05-01T09:48:26.358Z,3.03
2018-05-01T09:50:59.794Z,1.83
2018-05-01T09:53:33.456Z,1.58
2018-05-01T09:56:07.096Z,1.52
2018-05-01T09:58:40.748Z,2.75
2018-05-01T10:01:14.567Z,2.67
2018-05-01T10:03:49.952Z,1.80
2018-05-01T10:06:23.666Z,1.87
2018-05-01T10:08:57.480Z,2.47
2018-05-01T10:11:31.762Z,2.92
2018-05-01T10:14:06.192Z,2.95
2018-05-01T10:16:40.892Z,3.83
2018-05-01T10:19:14.727Z,1.42
2018-05-01T10:21:48.549Z,2.20
2018-05-01T10:24:22.475Z,2.50
2018-05-01T10:26:59.524Z,2.25
2018-05-01T10:29:37.562Z,2.12
2018-05-01T10:32:12.683Z,2.53
2018-05-01T10:34:48.211Z,1.23
2018-05-01T10:37:22.326Z,2.37
2018-05-01T10:39:57.894Z,1.70
2018-05-01T10:42:31.706Z,3.03
2018-05-01T10:45:06.408Z,3.62
2018-05-01T10:47:40.321Z,0.65
2018-05-01T10:50:14.027Z,2.05
2018-05-01T10:52:48.193Z,3.17
2018-05-01T10:55:22.468Z,2.75
2018-05-01T10:57:56.280Z,1.87
2018-05-01T11:00:30.235Z,1.87
2018-05-01T11:03:03.940Z,1.60
2018-05-01T11:05:40.702Z,1.25
2018-05-01T11:08:16.324Z,0.77
2018-05-01T11:10:50.205Z,1.60
2018-05-01T11:13:24.716Z,2.90
2018-05-01T11:15:59.692Z,2.42
2018-05-01T11:18:34.172Z,2.80
2018-05-01T11:23:58.115Z,2.65
2018-05-01T11:26:36.519Z,2.47
2018-05-01T11:29:12.656Z,2.78
2018-05-01T11:31:48.917Z,2.80
2018-05-01T11:34:23.063Z,1.42
2018-05-01T11:36:58.577Z,1.75
2018-05-01T11:39:33.034Z,2.72
2018-05-01T11:42:07.260Z,1.95
2018-05-01T11:44:42.283Z,1.85
2018-05-01T11:47:16.430Z,2.78
2018-05-01T11:49:52.574Z,1.95
2018-05-01T11:52:28.553Z,2.28
2018-05-01T11:55:08.533Z,1.45
2018-05-01T11:57:44.292Z,2.75
2018-05-01T12:00:21.435Z,2.00
2018-05-01T12:02:58.319Z,1.30
2018-05-01T12:05:33.366Z,1.67
2018-05-01T12:08:08.039Z,1.20
2018-05-01T12:10:42.148Z,1.85
2018-05-01T12:13:16.559Z,1.27
2018-05-01T12:15:50.358Z,2.17
2018-05-01T12:18:24.868Z,1.90
2018-05-01T12:21:00.557Z,1.90
2018-05-01T12:23:34.340Z,1.60
2018-05-01T12:26:09.163Z,1.73
2018-05-01T12:28:43.622Z,1.83
2018-05-01T12:31:22.021Z,2.23
2018-05-01T12:33:56.441Z,2.03
2018-05-01T12:36:30.577Z,1.50
2018-05-01T12:39:09.379Z,2.20
2018-05-01T12:41:46.568Z,2.27
2018-05-01T12:44:25.889Z,2.30
2018-05-01T12:47:00.763Z,2.27
2018-05-01T12:49:34.624Z,2.23
2018-05-01T12:52:08.311Z,1.53
2018-05-01T12:54:42.909Z,2.17
2018-05-01T12:57:16.538Z,1.57
2018-05-01T12:59:51.883Z,1.47
2018-05-01T13:05:24.142Z,0.90
2018-05-01T13:08:06.244Z,1.07
2018-05-01T13:10:44.732Z,2.50
2018-05-01T13:13:41.091Z,1.73
2018-05-01T13:19:22.298Z,3.17
2018-05-01T13:30:57.831Z,2.03
2018-05-01T13:33:33.881Z,0.73
2018-05-01T13:36:16.305Z,2.50
2018-05-01T13:38:52.930Z,0.90
2018-05-01T13:53:45.190Z,1.23
2018-05-01T13:56:30.285Z,2.23
2018-05-01T13:59:07.348Z,2.43
2018-05-01T14:05:07.601Z,3.00
2018-05-01T14:10:39.062Z,3.00
2018-05-01T14:16:28.363Z,3.00
2018-05-01T14:19:06.060Z,1.50
2018-05-01T14:21:40.683Z,2.90
2018-05-01T14:24:14.969Z,0.90
2018-05-01T14:26:50.553Z,3.50
2018-05-01T14:29:29.527Z,2.17
2018-05-01T14:32:04.545Z,2.50
2018-05-01T14:34:42.710Z,0.93
2018-05-01T14:37:18.314Z,1.10
2018-05-01T14:40:06.859Z,1.63
2018-05-01T14:42:43.033Z,0.70
2018-05-01T14:45:18.497Z,1.23
2018-05-01T14:47:59.627Z,3.57
2018-05-01T14:50:35.355Z,2.00
2018-05-01T14:53:12.017Z,2.00
2018-05-01T14:55:53.126Z,1.70
2018-05-01T14:58:33.201Z,0.40
2018-05-01T15:01:10.221Z,1.20
2018-05-01T15:03:46.793Z,2.50
2018-05-01T15:06:21.115Z,1.00
2018-05-01T15:08:58.244Z,2.00
2018-05-01T15:11:33.492Z,3.97
2018-05-01T15:14:09.210Z,2.97
2018-05-01T15:16:45.001Z,2.30
2018-05-01T15:19:18.963Z,1.50
2018-05-01T15:21:53.584Z,2.30
2018-05-01T15:24:30.443Z,1.73
2018-05-01T15:27:05.545Z,1.57
2018-05-01T15:29:44.406Z,1.10
2018-05-01T15:32:18.176Z,1.87
2018-05-01T15:34:53.936Z,2.20
2018-05-01T15:37:33.064Z,0.73
2018-05-01T15:40:07.100Z,1.30
2018-05-01T15:42:42.953Z,1.27
2018-05-01T15:45:19.126Z,0.80
2018-05-01T15:47:57.831Z,1.57
2018-05-01T15:50:31.518Z,1.20
2018-05-01T15:53:06.214Z,2.30
2018-05-01T15:55:42.526Z,1.50
2018-05-01T15:58:18.546Z,1.93
2018-05-01T16:00:53.184Z,1.23
2018-05-01T16:03:27.502Z,1.17
2018-05-01T16:06:03.041Z,2.17
2018-05-01T16:08:37.256Z,0.83
2018-05-01T16:11:11.847Z,1.60
2018-05-01T16:13:46.573Z,2.10
2018-05-01T16:16:21.909Z,1.00
2018-05-01T16:18:58.387Z,1.50
2018-05-01T16:21:32.079Z,1.80
2018-05-01T16:24:05.874Z,2.93
2018-05-01T16:26:40.488Z,1.50
2018-05-01T16:29:14.258Z,1.53
2018-05-01T16:31:48.108Z,0.73
2018-05-01T16:34:21.787Z,1.50
2018-05-01T16:36:55.483Z,1.00
2018-05-01T16:39:29.428Z,0.87
2018-05-01T16:42:04.117Z,0.57
2018-05-01T16:44:37.871Z,2.27
2018-05-01T16:47:16.023Z,1.57
2018-05-01T16:49:52.281Z,1.40
2018-05-01T16:52:26.021Z,1.83
2018-05-01T16:55:00.779Z,1.50
2018-05-01T16:57:35.343Z,0.83
2018-05-01T17:00:10.326Z,1.60
2018-05-01T17:02:44.617Z,1.03
2018-05-01T17:08:00.198Z,0.73
2018-05-01T17:10:34.395Z,0.30
2018-05-01T17:13:08.087Z,1.50
2018-05-01T17:15:44.765Z,1.50
2018-05-01T17:18:19.857Z,1.43
2018-05-01T17:20:54.948Z,0.60
2018-05-01T17:23:31.609Z,2.00
2018-05-01T17:26:13.638Z,1.77
2018-05-01T17:29:05.348Z,0.63
2018-05-01T17:31:42.078Z,2.37
2018-05-01T17:34:16.830Z,1.23
2018-05-01T17:36:55.153Z,1.47
2018-05-01T17:39:31.733Z,1.60
2018-05-01T17:42:05.579Z,1.53
2018-05-01T17:44:39.805Z,0.93
2018-05-01T17:47:15.331Z,0.73
2018-05-01T17:49:49.782Z,2.90
2018-05-01T17:52:24.235Z,0.60
2018-05-01T17:54:58.363Z,1.63
2018-05-01T17:57:35.526Z,2.00
2018-05-01T18:00:11.860Z,0.97
2018-05-01T18:02:51.470Z,2.00
2018-05-01T18:05:25.398Z,0.60
2018-05-01T18:07:59.262Z,1.50
2018-05-01T18:10:36.180Z,1.17
2018-05-01T18:13:09.774Z,0.73
2018-05-01T18:15:43.593Z,1.65
2018-05-01T18:18:17.286Z,1.27
2018-05-01T18:20:50.940Z,1.60
2018-05-01T18:23:24.635Z,1.90
2018-05-01T18:25:59.262Z,1.75
2018-05-01T18:28:33.114Z,1.67
2018-05-01T18:31:06.758Z,2.25
2018-05-01T18:33:40.531Z,0.50
2018-05-01T18:36:14.363Z,1.60
2018-05-01T18:38:48.174Z,0.40
2018-05-01T18:41:21.885Z,1.55
2018-05-01T18:43:55.702Z,1.15
2018-05-01T18:46:29.438Z,0.40
2018-05-01T18:49:03.900Z,0.55
2018-05-01T18:51:37.731Z,1.05
2018-05-01T18:54:11.551Z,0.60
2018-05-01T18:56:45.339Z,1.08
2018-05-01T18:59:19.856Z,0.57
2018-05-01T19:01:53.723Z,1.37
2018-05-01T19:04:32.307Z,0.80
2018-05-01T19:07:06.504Z,0.30
2018-05-01T19:09:40.179Z,0.70
2018-05-01T19:12:14.654Z,0.40
2018-05-01T19:17:27.385Z,1.40
2018-05-01T19:20:01.175Z,0.30
2018-05-01T19:22:35.476Z,0.40
2018-05-01T19:25:09.603Z,0.60
2018-05-01T19:27:43.626Z,1.02
2018-05-01T19:30:18.233Z,0.62
2018-05-01T19:32:53.581Z,0.65
2018-05-01T19:35:28.807Z,0.35
2018-05-01T19:38:06.566Z,0.30
2018-05-01T19:40:42.289Z,0.43
2018-05-01T19:43:16.027Z,0.30
2018-05-01T19:45:55.817Z,0.82
2018-05-01T19:48:32.554Z,0.68
2018-05-01T19:51:14.194Z,0.50
2018-05-01T19:53:54.586Z,0.40
2018-05-01T19:56:31.631Z,2.12
2018-05-01T19:59:06.848Z,2.22
2018-05-01T20:01:40.445Z,0.30
2018-05-01T20:04:19.093Z,0.50
2018-05-01T20:06:53.784Z,0.30
2018-05-01T20:09:28.009Z,0.70
2018-05-01T20:12:05.077Z,0.32
2018-05-01T20:14:41.955Z,0.37
2018-05-01T20:17:21.272Z,0.30
2018-05-01T20:20:03.290Z,0.62
2018-05-01T20:22:39.998Z,2.22
2018-05-01T20:25:16.686Z,0.30
2018-05-01T20:27:56.450Z,0.40
2018-05-01T20:30:30.687Z,1.23
2018-05-01T20:33:06.661Z,1.12
2018-05-01T20:35:42.795Z,0.40
2018-05-01T20:38:17.299Z,1.02
2018-05-01T20:40:51.948Z,0.30
2018-05-01T20:43:27.616Z,0.40
2018-05-01T20:46:02.196Z,0.40
2018-05-01T20:48:36.823Z,0.50
2018-05-01T20:51:10.615Z,0.30
2018-05-01T20:53:44.398Z,0.37
2018-05-01T20:56:19.167Z,0.40
2018-05-01T20:58:52.906Z,0.40
2018-05-01T21:01:28.820Z,0.40
2018-05-01T21:04:02.406Z,1.85
2018-05-01T21:06:36.254Z,0.30
2018-05-01T21:09:10.316Z,0.40
2018-05-01T21:11:44.116Z,0.35
2018-05-01T21:14:17.920Z,0.30
2018-05-01T21:16:51.688Z,0.40
2018-05-01T21:19:25.718Z,0.40
2018-05-01T21:21:59.581Z,0.40
2018-05-01T21:24:34.120Z,0.40
2018-05-01T21:27:09.064Z,0.40
2018-05-01T21:29:43.165Z,0.40
2018-05-01T21:32:16.828Z,0.35
2018-05-01T21:34:52.107Z,0.40
2018-05-01T21:37:25.801Z,0.40
2018-05-01T21:39:59.612Z,0.40
2018-05-01T21:42:33.999Z,0.40
2018-05-01T21:45:08.808Z,0.70
2018-05-01T21:47:42.525Z,0.40
2018-05-01T21:50:16.236Z,0.40
2018-05-01T21:52:50.744Z,0.40
2018-05-01T21:55:24.405Z,0.40
2018-05-01T21:57:58.935Z,0.40
2018-05-01T22:00:33.556Z,0.40
2018-05-01T22:03:07.415Z,0.40
2018-05-01T22:05:42.149Z,0.32
2018-05-01T22:08:15.791Z,0.40
2018-05-01T22:10:49.549Z,0.40
2018-05-01T22:13:25.185Z,0.40
2018-05-01T22:15:58.931Z,0.40
2018-05-01T22:18:33.282Z,0.37
2018-05-01T22:21:06.880Z,0.40
2018-05-01T22:23:42.210Z,0.40
2018-05-01T22:26:16.174Z,1.15
2018-05-01T22:28:50.184Z,0.40
2018-05-01T22:31:23.917Z,0.40
2018-05-01T22:33:58.127Z,0.40
2018-05-01T22:36:31.821Z,0.40
2018-05-01T22:39:06.350Z,0.40
2018-05-01T22:41:41.796Z,0.32
2018-05-01T22:44:15.516Z,0.40
2018-05-01T22:46:50.176Z,0.32
2018-05-01T22:49:27.874Z,0.30
2018-05-01T22:52:01.907Z,0.40
2018-05-01T22:54:38.104Z,0.40
2018-05-01T22:57:17.691Z,0.40
2018-05-01T22:59:53.841Z,0.40
2018-05-01T23:02:33.031Z,0.40
2018-05-01T23:05:08.318Z,0.30
2018-05-01T23:07:43.570Z,1.73
2018-05-01T23:10:22.788Z,0.40
2018-05-01T23:13:00.266Z,0.40
2018-05-01T23:15:36.717Z,0.40
2018-05-01T23:18:12.451Z,0.40
2018-05-01T23:20:46.111Z,0.40
2018-05-01T23:23:23.151Z,0.40
2018-05-01T23:25:58.679Z,0.40
2018-05-01T23:28:33.549Z,0.40
2018-05-01T23:31:08.853Z,0.40
2018-05-01T23:36:33.273Z,0.40
2018-05-01T23:39:08.557Z,0.40
2018-05-01T23:41:43.853Z,0.50
2018-05-01T23:44:19.960Z,0.40
2018-05-01T23:46:55.535Z,0.40
2018-05-01T23:49:31.594Z,0.40
2018-05-01T23:52:08.063Z,0.40
2018-05-01T23:54:46.427Z,0.40
2018-05-01T23:57:22.240Z,0.60
2018-05-01T23:59:56.909Z,0.40
